sensor_id;sensor_type;location;lat;lon;timestamp;P1;durP1;ratioP1;P2;durP2;ratioP2
19036;SDS011;9651;49.138;8.900;2023-09-19T00:00:02;0.75;;;0.70;;
19036;SDS011;9651;49.138;8.900;2023-09-19T00:04:06;1.42;;;0.85;;
19036;SDS011;9651;49.138;8.900;2023-09-19T00:08:10;3.05;;;1.00;;
19036;SDS011;9651;49.138;8.900;2023-09-19T00:12:13;2.33;;;1.10;;
19036;SDS011;9651;49.138;8.900;2023-09-19T00:16:16;3.38;;;0.95;;
19036;SDS011;9651;49.138;8.900;2023-09-19T00:20:19;1.65;;;1.00;;
19036;SDS011;9651;49.138;8.900;2023-09-19T00:24:23;3.67;;;1.25;;
19036;SDS011;9651;49.138;8.900;2023-09-19T00:28:25;5.10;;;1.00;;
19036;SDS011;9651;49.138;8.900;2023-09-19T00:32:28;1.88;;;0.98;;
19036;SDS011;9651;49.138;8.900;2023-09-19T00:36:32;3.83;;;1.15;;
19036;SDS011;9651;49.138;8.900;2023-09-19T00:40:34;3.08;;;0.90;;
19036;SDS011;9651;49.138;8.900;2023-09-19T00:44:37;2.47;;;1.20;;
19036;SDS011;9651;49.138;8.900;2023-09-19T00:48:41;2.67;;;1.27;;
19036;SDS011;9651;49.138;8.900;2023-09-19T00:52:44;3.28;;;1.15;;
19036;SDS011;9651;49.138;8.900;2023-09-19T00:56:49;2.78;;;1.10;;
19036;SDS011;9651;49.138;8.900;2023-09-19T01:00:54;1.55;;;1.00;;
19036;SDS011;9651;49.138;8.900;2023-09-19T01:04:58;4.47;;;1.20;;
19036;SDS011;9651;49.138;8.900;2023-09-19T01:09:00;1.95;;;0.95;;
19036;SDS011;9651;49.138;8.900;2023-09-19T01:13:05;2.05;;;1.00;;
19036;SDS011;9651;49.138;8.900;2023-09-19T01:17:17;1.38;;;0.80;;
19036;SDS011;9651;49.138;8.900;2023-09-19T01:21:27;1.77;;;1.10;;
19036;SDS011;9651;49.138;8.900;2023-09-19T01:30:10;3.17;;;0.88;;
19036;SDS011;9651;49.138;8.900;2023-09-19T01:34:17;4.55;;;1.67;;
19036;SDS011;9651;49.138;8.900;2023-09-19T01:38:19;1.67;;;0.90;;
19036;SDS011;9651;49.138;8.900;2023-09-19T01:42:24;4.43;;;1.65;;
19036;SDS011;9651;49.138;8.900;2023-09-19T01:46:34;2.60;;;1.30;;
19036;SDS011;9651;49.138;8.900;2023-09-19T01:50:42;1.52;;;1.05;;
19036;SDS011;9651;49.138;8.900;2023-09-19T01:54:50;3.58;;;0.90;;
19036;SDS011;9651;49.138;8.900;2023-09-19T01:58:53;3.20;;;1.10;;
19036;SDS011;9651;49.138;8.900;2023-09-19T02:02:59;3.92;;;0.82;;
19036;SDS011;9651;49.138;8.900;2023-09-19T02:07:01;1.70;;;1.08;;
19036;SDS011;9651;49.138;8.900;2023-09-19T02:11:05;2.40;;;0.82;;
19036;SDS011;9651;49.138;8.900;2023-09-19T02:15:08;1.83;;;0.82;;
19036;SDS011;9651;49.138;8.900;2023-09-19T02:19:11;3.55;;;0.90;;
19036;SDS011;9651;49.138;8.900;2023-09-19T02:23:14;2.35;;;0.98;;
19036;SDS011;9651;49.138;8.900;2023-09-19T02:27:17;3.15;;;1.10;;
19036;SDS011;9651;49.138;8.900;2023-09-19T02:31:19;2.63;;;0.82;;
19036;SDS011;9651;49.138;8.900;2023-09-19T02:35:22;1.48;;;1.15;;
19036;SDS011;9651;49.138;8.900;2023-09-19T02:39:26;4.57;;;1.20;;
19036;SDS011;9651;49.138;8.900;2023-09-19T02:43:29;2.30;;;0.93;;
19036;SDS011;9651;49.138;8.900;2023-09-19T02:47:31;1.67;;;1.05;;
19036;SDS011;9651;49.138;8.900;2023-09-19T02:51:34;2.45;;;1.17;;
19036;SDS011;9651;49.138;8.900;2023-09-19T02:55:36;2.15;;;0.80;;
19036;SDS011;9651;49.138;8.900;2023-09-19T02:59:40;3.15;;;0.80;;
19036;SDS011;9651;49.138;8.900;2023-09-19T03:03:44;2.45;;;0.80;;
19036;SDS011;9651;49.138;8.900;2023-09-19T03:07:48;2.60;;;1.08;;
19036;SDS011;9651;49.138;8.900;2023-09-19T03:11:51;2.20;;;0.93;;
19036;SDS011;9651;49.138;8.900;2023-09-19T03:15:55;1.73;;;0.95;;
19036;SDS011;9651;49.138;8.900;2023-09-19T03:20:00;1.60;;;1.33;;
19036;SDS011;9651;49.138;8.900;2023-09-19T03:24:04;4.63;;;1.70;;
19036;SDS011;9651;49.138;8.900;2023-09-19T03:28:07;1.40;;;0.90;;
19036;SDS011;9651;49.138;8.900;2023-09-19T03:32:10;1.50;;;0.73;;
19036;SDS011;9651;49.138;8.900;2023-09-19T03:36:12;1.90;;;0.90;;
19036;SDS011;9651;49.138;8.900;2023-09-19T03:40:16;2.03;;;1.83;;
19036;SDS011;9651;49.138;8.900;2023-09-19T03:44:20;8.43;;;3.08;;
19036;SDS011;9651;49.138;8.900;2023-09-19T03:48:22;1.95;;;1.15;;
19036;SDS011;9651;49.138;8.900;2023-09-19T03:52:25;1.92;;;1.08;;
19036;SDS011;9651;49.138;8.900;2023-09-19T03:56:28;1.80;;;1.08;;
19036;SDS011;9651;49.138;8.900;2023-09-19T04:00:31;3.22;;;1.35;;
19036;SDS011;9651;49.138;8.900;2023-09-19T04:04:34;2.33;;;1.08;;
19036;SDS011;9651;49.138;8.900;2023-09-19T04:08:36;2.00;;;1.38;;
19036;SDS011;9651;49.138;8.900;2023-09-19T04:12:39;1.85;;;1.05;;
19036;SDS011;9651;49.138;8.900;2023-09-19T04:16:41;1.73;;;1.10;;
19036;SDS011;9651;49.138;8.900;2023-09-19T04:20:47;2.08;;;1.08;;
19036;SDS011;9651;49.138;8.900;2023-09-19T04:24:49;3.72;;;1.20;;
19036;SDS011;9651;49.138;8.900;2023-09-19T04:28:53;2.25;;;1.20;;
19036;SDS011;9651;49.138;8.900;2023-09-19T04:32:56;3.50;;;1.30;;
19036;SDS011;9651;49.138;8.900;2023-09-19T04:36:58;1.98;;;0.95;;
19036;SDS011;9651;49.138;8.900;2023-09-19T04:41:00;2.22;;;1.05;;
19036;SDS011;9651;49.138;8.900;2023-09-19T04:45:04;6.18;;;1.63;;
19036;SDS011;9651;49.138;8.900;2023-09-19T04:49:07;3.20;;;1.80;;
19036;SDS011;9651;49.138;8.900;2023-09-19T04:53:09;2.53;;;1.20;;
19036;SDS011;9651;49.138;8.900;2023-09-19T04:57:11;2.78;;;1.45;;
19036;SDS011;9651;49.138;8.900;2023-09-19T05:01:14;4.65;;;1.52;;
19036;SDS011;9651;49.138;8.900;2023-09-19T05:05:16;2.80;;;1.73;;
19036;SDS011;9651;49.138;8.900;2023-09-19T05:09:19;3.10;;;1.65;;
19036;SDS011;9651;49.138;8.900;2023-09-19T05:13:21;3.92;;;1.60;;
19036;SDS011;9651;49.138;8.900;2023-09-19T05:17:24;1.83;;;1.63;;
19036;SDS011;9651;49.138;8.900;2023-09-19T05:21:26;1.95;;;1.63;;
19036;SDS011;9651;49.138;8.900;2023-09-19T05:25:31;3.28;;;2.35;;
19036;SDS011;9651;49.138;8.900;2023-09-19T05:29:37;4.85;;;1.80;;
19036;SDS011;9651;49.138;8.900;2023-09-19T05:33:40;5.53;;;1.67;;
19036;SDS011;9651;49.138;8.900;2023-09-19T05:37:42;4.38;;;1.50;;
19036;SDS011;9651;49.138;8.900;2023-09-19T05:41:44;2.35;;;1.73;;
19036;SDS011;9651;49.138;8.900;2023-09-19T05:45:47;4.05;;;1.80;;
19036;SDS011;9651;49.138;8.900;2023-09-19T05:49:53;5.40;;;1.38;;
19036;SDS011;9651;49.138;8.900;2023-09-19T05:53:55;2.45;;;1.80;;
19036;SDS011;9651;49.138;8.900;2023-09-19T05:57:57;2.97;;;2.00;;
19036;SDS011;9651;49.138;8.900;2023-09-19T06:01:59;3.72;;;1.95;;
19036;SDS011;9651;49.138;8.900;2023-09-19T06:06:02;4.43;;;1.85;;
19036;SDS011;9651;49.138;8.900;2023-09-19T06:10:06;2.38;;;2.00;;
19036;SDS011;9651;49.138;8.900;2023-09-19T06:14:10;4.82;;;2.65;;
19036;SDS011;9651;49.138;8.900;2023-09-19T06:18:12;4.57;;;3.05;;
19036;SDS011;9651;49.138;8.900;2023-09-19T06:22:20;5.20;;;4.07;;
19036;SDS011;9651;49.138;8.900;2023-09-19T06:26:22;6.72;;;3.25;;
19036;SDS011;9651;49.138;8.900;2023-09-19T06:30:27;4.88;;;3.47;;
19036;SDS011;9651;49.138;8.900;2023-09-19T06:34:29;3.65;;;2.53;;
19036;SDS011;9651;49.138;8.900;2023-09-19T06:38:33;3.45;;;2.20;;
19036;SDS011;9651;49.138;8.900;2023-09-19T06:42:36;4.45;;;2.15;;
19036;SDS011;9651;49.138;8.900;2023-09-19T06:46:38;2.42;;;1.60;;
19036;SDS011;9651;49.138;8.900;2023-09-19T06:50:41;4.45;;;1.98;;
19036;SDS011;9651;49.138;8.900;2023-09-19T06:54:45;2.58;;;1.73;;
19036;SDS011;9651;49.138;8.900;2023-09-19T06:58:47;3.70;;;1.80;;
19036;SDS011;9651;49.138;8.900;2023-09-19T07:02:56;2.80;;;1.83;;
19036;SDS011;9651;49.138;8.900;2023-09-19T07:06:59;5.22;;;1.58;;
19036;SDS011;9651;49.138;8.900;2023-09-19T07:11:02;2.25;;;2.00;;
19036;SDS011;9651;49.138;8.900;2023-09-19T07:15:06;6.50;;;1.88;;
19036;SDS011;9651;49.138;8.900;2023-09-19T07:19:09;4.93;;;1.90;;
19036;SDS011;9651;49.138;8.900;2023-09-19T07:23:11;6.32;;;1.52;;
19036;SDS011;9651;49.138;8.900;2023-09-19T07:27:16;4.22;;;1.27;;
19036;SDS011;9651;49.138;8.900;2023-09-19T07:31:18;4.55;;;1.45;;
19036;SDS011;9651;49.138;8.900;2023-09-19T07:35:20;5.40;;;1.30;;
19036;SDS011;9651;49.138;8.900;2023-09-19T07:39:22;3.67;;;1.50;;
19036;SDS011;9651;49.138;8.900;2023-09-19T07:43:25;1.48;;;0.80;;
19036;SDS011;9651;49.138;8.900;2023-09-19T07:47:27;2.33;;;1.02;;
19036;SDS011;9651;49.138;8.900;2023-09-19T07:51:30;2.90;;;1.70;;
19036;SDS011;9651;49.138;8.900;2023-09-19T07:55:33;2.92;;;1.27;;
19036;SDS011;9651;49.138;8.900;2023-09-19T07:59:36;4.28;;;1.25;;
19036;SDS011;9651;49.138;8.900;2023-09-19T08:03:39;2.22;;;1.10;;
19036;SDS011;9651;49.138;8.900;2023-09-19T08:07:43;3.83;;;1.50;;
19036;SDS011;9651;49.138;8.900;2023-09-19T08:11:48;2.10;;;1.30;;
19036;SDS011;9651;49.138;8.900;2023-09-19T08:15:52;1.95;;;1.20;;
19036;SDS011;9651;49.138;8.900;2023-09-19T08:19:54;2.92;;;0.90;;
19036;SDS011;9651;49.138;8.900;2023-09-19T08:23:56;4.80;;;1.10;;
19036;SDS011;9651;49.138;8.900;2023-09-19T08:27:57;3.08;;;0.90;;
19036;SDS011;9651;49.138;8.900;2023-09-19T08:32:03;6.38;;;1.10;;
19036;SDS011;9651;49.138;8.900;2023-09-19T08:36:06;4.75;;;1.23;;
19036;SDS011;9651;49.138;8.900;2023-09-19T08:40:09;3.58;;;1.15;;
19036;SDS011;9651;49.138;8.900;2023-09-19T08:44:13;5.13;;;1.30;;
19036;SDS011;9651;49.138;8.900;2023-09-19T08:48:22;3.63;;;1.10;;
19036;SDS011;9651;49.138;8.900;2023-09-19T08:52:25;3.38;;;1.17;;
19036;SDS011;9651;49.138;8.900;2023-09-19T08:56:34;3.55;;;1.13;;
19036;SDS011;9651;49.138;8.900;2023-09-19T09:00:39;4.95;;;1.67;;
19036;SDS011;9651;49.138;8.900;2023-09-19T09:04:46;1.40;;;0.90;;
19036;SDS011;9651;49.138;8.900;2023-09-19T09:08:50;2.22;;;1.20;;
19036;SDS011;9651;49.138;8.900;2023-09-19T09:12:52;2.85;;;0.88;;
19036;SDS011;9651;49.138;8.900;2023-09-19T09:16:55;2.33;;;1.25;;
19036;SDS011;9651;49.138;8.900;2023-09-19T09:21:00;3.35;;;1.50;;
19036;SDS011;9651;49.138;8.900;2023-09-19T09:25:04;2.88;;;1.20;;
19036;SDS011;9651;49.138;8.900;2023-09-19T09:29:06;3.60;;;1.23;;
19036;SDS011;9651;49.138;8.900;2023-09-19T09:33:09;3.13;;;1.33;;
19036;SDS011;9651;49.138;8.900;2023-09-19T09:37:14;2.97;;;0.93;;
19036;SDS011;9651;49.138;8.900;2023-09-19T09:41:17;3.08;;;0.70;;
19036;SDS011;9651;49.138;8.900;2023-09-19T09:45:27;7.47;;;1.52;;
19036;SDS011;9651;49.138;8.900;2023-09-19T09:49:37;1.70;;;0.90;;
19036;SDS011;9651;49.138;8.900;2023-09-19T09:53:40;2.40;;;1.10;;
19036;SDS011;9651;49.138;8.900;2023-09-19T09:57:45;6.25;;;1.40;;
19036;SDS011;9651;49.138;8.900;2023-09-19T10:01:47;1.52;;;0.98;;
19036;SDS011;9651;49.138;8.900;2023-09-19T10:05:53;2.13;;;1.00;;
19036;SDS011;9651;49.138;8.900;2023-09-19T10:09:56;4.43;;;1.13;;
19036;SDS011;9651;49.138;8.900;2023-09-19T10:14:05;2.97;;;1.08;;
19036;SDS011;9651;49.138;8.900;2023-09-19T10:18:10;4.72;;;1.10;;
19036;SDS011;9651;49.138;8.900;2023-09-19T10:22:17;4.28;;;1.13;;
19036;SDS011;9651;49.138;8.900;2023-09-19T10:26:24;2.35;;;0.93;;
19036;SDS011;9651;49.138;8.900;2023-09-19T10:30:31;4.75;;;1.45;;
19036;SDS011;9651;49.138;8.900;2023-09-19T10:34:39;1.50;;;0.75;;
19036;SDS011;9651;49.138;8.900;2023-09-19T10:38:43;3.35;;;1.20;;
19036;SDS011;9651;49.138;8.900;2023-09-19T10:42:48;2.95;;;1.08;;
19036;SDS011;9651;49.138;8.900;2023-09-19T10:46:51;2.50;;;1.00;;
19036;SDS011;9651;49.138;8.900;2023-09-19T10:50:56;3.35;;;1.10;;
19036;SDS011;9651;49.138;8.900;2023-09-19T10:55:05;2.20;;;0.80;;
19036;SDS011;9651;49.138;8.900;2023-09-19T10:59:11;2.50;;;0.90;;
19036;SDS011;9651;49.138;8.900;2023-09-19T11:03:16;3.38;;;1.00;;
19036;SDS011;9651;49.138;8.900;2023-09-19T11:07:20;3.30;;;1.10;;
19036;SDS011;9651;49.138;8.900;2023-09-19T11:11:45;2.22;;;1.10;;
19036;SDS011;9651;49.138;8.900;2023-09-19T11:16:04;2.50;;;1.10;;
19036;SDS011;9651;49.138;8.900;2023-09-19T11:24:35;1.55;;;0.75;;
19036;SDS011;9651;49.138;8.900;2023-09-19T11:28:38;1.98;;;0.90;;
19036;SDS011;9651;49.138;8.900;2023-09-19T11:46:51;3.78;;;1.02;;
19036;SDS011;9651;49.138;8.900;2023-09-19T11:50:55;2.90;;;1.00;;
19036;SDS011;9651;49.138;8.900;2023-09-19T11:54:59;2.78;;;1.20;;
19036;SDS011;9651;49.138;8.900;2023-09-19T11:59:02;2.03;;;0.95;;
19036;SDS011;9651;49.138;8.900;2023-09-19T12:03:05;2.10;;;0.98;;
19036;SDS011;9651;49.138;8.900;2023-09-19T12:07:12;1.63;;;0.90;;
19036;SDS011;9651;49.138;8.900;2023-09-19T12:11:15;4.50;;;0.98;;
19036;SDS011;9651;49.138;8.900;2023-09-19T12:15:22;2.53;;;1.35;;
19036;SDS011;9651;49.138;8.900;2023-09-19T12:19:28;2.40;;;1.17;;
19036;SDS011;9651;49.138;8.900;2023-09-19T12:23:31;3.60;;;1.40;;
19036;SDS011;9651;49.138;8.900;2023-09-19T12:27:43;1.50;;;1.17;;
19036;SDS011;9651;49.138;8.900;2023-09-19T12:31:50;1.20;;;0.85;;
19036;SDS011;9651;49.138;8.900;2023-09-19T12:35:55;3.95;;;1.40;;
19036;SDS011;9651;49.138;8.900;2023-09-19T12:40:06;2.45;;;0.93;;
19036;SDS011;9651;49.138;8.900;2023-09-19T12:44:17;2.83;;;1.00;;
19036;SDS011;9651;49.138;8.900;2023-09-19T12:48:23;1.40;;;1.08;;
19036;SDS011;9651;49.138;8.900;2023-09-19T12:52:34;1.58;;;1.02;;
19036;SDS011;9651;49.138;8.900;2023-09-19T12:56:41;2.53;;;1.13;;
19036;SDS011;9651;49.138;8.900;2023-09-19T13:00:45;2.53;;;1.08;;
19036;SDS011;9651;49.138;8.900;2023-09-19T13:04:52;2.70;;;1.20;;
19036;SDS011;9651;49.138;8.900;2023-09-19T13:09:07;2.22;;;1.15;;
19036;SDS011;9651;49.138;8.900;2023-09-19T13:13:23;1.85;;;1.08;;
19036;SDS011;9651;49.138;8.900;2023-09-19T13:17:41;2.70;;;1.20;;
19036;SDS011;9651;49.138;8.900;2023-09-19T13:21:44;2.35;;;1.02;;
19036;SDS011;9651;49.138;8.900;2023-09-19T13:25:49;5.45;;;1.67;;
19036;SDS011;9651;49.138;8.900;2023-09-19T13:29:52;4.38;;;1.42;;
19036;SDS011;9651;49.138;8.900;2023-09-19T13:33:54;3.28;;;1.33;;
19036;SDS011;9651;49.138;8.900;2023-09-19T13:37:56;3.72;;;1.10;;
19036;SDS011;9651;49.138;8.900;2023-09-19T13:41:58;2.47;;;1.15;;
19036;SDS011;9651;49.138;8.900;2023-09-19T13:46:01;1.92;;;0.75;;
19036;SDS011;9651;49.138;8.900;2023-09-19T13:50:04;1.25;;;1.00;;
19036;SDS011;9651;49.138;8.900;2023-09-19T13:54:06;3.75;;;1.60;;
19036;SDS011;9651;49.138;8.900;2023-09-19T13:58:08;2.85;;;1.42;;
19036;SDS011;9651;49.138;8.900;2023-09-19T14:02:13;1.40;;;0.77;;
19036;SDS011;9651;49.138;8.900;2023-09-19T14:06:17;0.95;;;0.82;;
19036;SDS011;9651;49.138;8.900;2023-09-19T14:10:19;2.17;;;0.95;;
19036;SDS011;9651;49.138;8.900;2023-09-19T14:14:21;2.53;;;1.00;;
19036;SDS011;9651;49.138;8.900;2023-09-19T14:18:24;1.58;;;0.82;;
19036;SDS011;9651;49.138;8.900;2023-09-19T14:22:26;1.35;;;0.90;;
19036;SDS011;9651;49.138;8.900;2023-09-19T14:26:28;1.17;;;0.85;;
19036;SDS011;9651;49.138;8.900;2023-09-19T14:30:30;1.23;;;0.93;;
19036;SDS011;9651;49.138;8.900;2023-09-19T14:34:34;1.10;;;0.75;;
19036;SDS011;9651;49.138;8.900;2023-09-19T14:38:42;3.92;;;1.08;;
19036;SDS011;9651;49.138;8.900;2023-09-19T14:42:44;2.15;;;1.10;;
19036;SDS011;9651;49.138;8.900;2023-09-19T14:46:46;2.17;;;1.15;;
19036;SDS011;9651;49.138;8.900;2023-09-19T14:50:49;4.38;;;1.20;;
19036;SDS011;9651;49.138;8.900;2023-09-19T14:54:51;1.83;;;1.00;;
19036;SDS011;9651;49.138;8.900;2023-09-19T14:58:53;2.40;;;0.70;;
19036;SDS011;9651;49.138;8.900;2023-09-19T15:02:55;1.90;;;0.95;;
19036;SDS011;9651;49.138;8.900;2023-09-19T15:06:58;3.05;;;1.42;;
19036;SDS011;9651;49.138;8.900;2023-09-19T15:11:00;1.17;;;0.90;;
19036;SDS011;9651;49.138;8.900;2023-09-19T15:15:07;3.75;;;1.30;;
19036;SDS011;9651;49.138;8.900;2023-09-19T15:19:09;1.42;;;1.00;;
19036;SDS011;9651;49.138;8.900;2023-09-19T15:23:12;2.10;;;0.75;;
19036;SDS011;9651;49.138;8.900;2023-09-19T15:27:16;0.90;;;0.70;;
19036;SDS011;9651;49.138;8.900;2023-09-19T15:31:19;1.00;;;0.80;;
19036;SDS011;9651;49.138;8.900;2023-09-19T15:35:21;0.77;;;0.70;;
19036;SDS011;9651;49.138;8.900;2023-09-19T15:39:24;1.42;;;0.70;;
19036;SDS011;9651;49.138;8.900;2023-09-19T15:43:26;0.75;;;0.60;;
19036;SDS011;9651;49.138;8.900;2023-09-19T15:47:28;1.25;;;0.80;;
19036;SDS011;9651;49.138;8.900;2023-09-19T15:51:31;0.65;;;0.65;;
19036;SDS011;9651;49.138;8.900;2023-09-19T15:55:34;1.20;;;0.80;;
19036;SDS011;9651;49.138;8.900;2023-09-19T15:59:40;4.32;;;0.80;;
19036;SDS011;9651;49.138;8.900;2023-09-19T16:03:42;1.40;;;0.80;;
19036;SDS011;9651;49.138;8.900;2023-09-19T16:07:45;0.85;;;0.65;;
19036;SDS011;9651;49.138;8.900;2023-09-19T16:11:48;1.67;;;0.75;;
19036;SDS011;9651;49.138;8.900;2023-09-19T16:15:50;1.13;;;0.77;;
19036;SDS011;9651;49.138;8.900;2023-09-19T16:19:52;0.90;;;0.80;;
19036;SDS011;9651;49.138;8.900;2023-09-19T16:23:55;2.15;;;0.63;;
19036;SDS011;9651;49.138;8.900;2023-09-19T16:27:59;1.20;;;0.73;;
19036;SDS011;9651;49.138;8.900;2023-09-19T16:32:02;1.80;;;0.85;;
19036;SDS011;9651;49.138;8.900;2023-09-19T16:36:06;1.27;;;0.70;;
19036;SDS011;9651;49.138;8.900;2023-09-19T16:40:09;3.13;;;1.00;;
19036;SDS011;9651;49.138;8.900;2023-09-19T16:44:13;1.38;;;0.63;;
19036;SDS011;9651;49.138;8.900;2023-09-19T16:48:15;3.22;;;0.95;;
19036;SDS011;9651;49.138;8.900;2023-09-19T16:52:17;1.55;;;0.88;;
19036;SDS011;9651;49.138;8.900;2023-09-19T16:56:19;2.00;;;0.80;;
19036;SDS011;9651;49.138;8.900;2023-09-19T17:00:23;2.35;;;0.80;;
19036;SDS011;9651;49.138;8.900;2023-09-19T17:04:25;2.00;;;0.90;;
19036;SDS011;9651;49.138;8.900;2023-09-19T17:08:29;1.40;;;0.75;;
19036;SDS011;9651;49.138;8.900;2023-09-19T17:12:31;1.77;;;0.90;;
19036;SDS011;9651;49.138;8.900;2023-09-19T17:16:35;1.50;;;0.90;;
19036;SDS011;9651;49.138;8.900;2023-09-19T17:20:40;2.13;;;0.70;;
19036;SDS011;9651;49.138;8.900;2023-09-19T17:24:42;3.38;;;1.73;;
19036;SDS011;9651;49.138;8.900;2023-09-19T17:28:46;2.28;;;1.80;;
19036;SDS011;9651;49.138;8.900;2023-09-19T17:32:49;1.23;;;0.85;;
19036;SDS011;9651;49.138;8.900;2023-09-19T17:36:51;2.55;;;0.90;;
19036;SDS011;9651;49.138;8.900;2023-09-19T17:40:54;0.82;;;0.82;;
19036;SDS011;9651;49.138;8.900;2023-09-19T17:44:56;2.55;;;1.40;;
19036;SDS011;9651;49.138;8.900;2023-09-19T17:48:59;1.65;;;1.13;;
19036;SDS011;9651;49.138;8.900;2023-09-19T17:53:01;1.85;;;1.13;;
19036;SDS011;9651;49.138;8.900;2023-09-19T17:57:05;1.27;;;0.88;;
19036;SDS011;9651;49.138;8.900;2023-09-19T18:01:08;1.55;;;1.05;;
19036;SDS011;9651;49.138;8.900;2023-09-19T18:05:12;2.45;;;1.25;;
19036;SDS011;9651;49.138;8.900;2023-09-19T18:09:16;5.88;;;1.60;;
19036;SDS011;9651;49.138;8.900;2023-09-19T18:13:18;2.42;;;1.20;;
19036;SDS011;9651;49.138;8.900;2023-09-19T18:17:20;1.85;;;1.13;;
19036;SDS011;9651;49.138;8.900;2023-09-19T18:21:24;2.65;;;1.00;;
19036;SDS011;9651;49.138;8.900;2023-09-19T18:25:27;1.00;;;0.70;;
19036;SDS011;9651;49.138;8.900;2023-09-19T18:29:29;4.90;;;1.00;;
19036;SDS011;9651;49.138;8.900;2023-09-19T18:33:31;1.65;;;1.00;;
19036;SDS011;9651;49.138;8.900;2023-09-19T18:37:34;3.78;;;1.00;;
19036;SDS011;9651;49.138;8.900;2023-09-19T18:41:37;4.65;;;1.60;;
19036;SDS011;9651;49.138;8.900;2023-09-19T18:45:38;4.57;;;1.83;;
19036;SDS011;9651;49.138;8.900;2023-09-19T18:49:41;2.67;;;1.92;;
19036;SDS011;9651;49.138;8.900;2023-09-19T18:53:44;4.28;;;1.80;;
19036;SDS011;9651;49.138;8.900;2023-09-19T18:57:46;2.05;;;1.33;;
19036;SDS011;9651;49.138;8.900;2023-09-19T19:01:48;3.22;;;1.20;;
19036;SDS011;9651;49.138;8.900;2023-09-19T19:05:50;1.98;;;1.17;;
19036;SDS011;9651;49.138;8.900;2023-09-19T19:09:54;4.18;;;1.23;;
19036;SDS011;9651;49.138;8.900;2023-09-19T19:13:56;2.78;;;1.00;;
19036;SDS011;9651;49.138;8.900;2023-09-19T19:17:58;2.05;;;1.05;;
19036;SDS011;9651;49.138;8.900;2023-09-19T19:22:01;2.10;;;1.20;;
19036;SDS011;9651;49.138;8.900;2023-09-19T19:26:05;2.80;;;1.20;;
19036;SDS011;9651;49.138;8.900;2023-09-19T19:30:09;2.50;;;1.00;;
19036;SDS011;9651;49.138;8.900;2023-09-19T19:34:11;2.25;;;1.23;;
19036;SDS011;9651;49.138;8.900;2023-09-19T19:38:13;1.00;;;0.90;;
19036;SDS011;9651;49.138;8.900;2023-09-19T19:42:17;1.92;;;1.10;;
19036;SDS011;9651;49.138;8.900;2023-09-19T19:46:19;2.60;;;1.13;;
19036;SDS011;9651;49.138;8.900;2023-09-19T19:50:21;2.92;;;1.40;;
19036;SDS011;9651;49.138;8.900;2023-09-19T19:54:23;3.17;;;1.13;;
19036;SDS011;9651;49.138;8.900;2023-09-19T19:58:26;1.83;;;1.17;;
19036;SDS011;9651;49.138;8.900;2023-09-19T20:02:28;2.72;;;1.00;;
19036;SDS011;9651;49.138;8.900;2023-09-19T20:06:30;2.08;;;1.05;;
19036;SDS011;9651;49.138;8.900;2023-09-19T20:10:32;1.75;;;1.10;;
19036;SDS011;9651;49.138;8.900;2023-09-19T20:14:38;1.30;;;1.00;;
19036;SDS011;9651;49.138;8.900;2023-09-19T20:18:40;1.50;;;1.20;;
19036;SDS011;9651;49.138;8.900;2023-09-19T20:22:42;3.22;;;0.90;;
19036;SDS011;9651;49.138;8.900;2023-09-19T20:26:45;2.40;;;1.08;;
19036;SDS011;9651;49.138;8.900;2023-09-19T20:30:48;2.05;;;1.10;;
19036;SDS011;9651;49.138;8.900;2023-09-19T20:34:50;1.92;;;1.15;;
19036;SDS011;9651;49.138;8.900;2023-09-19T20:38:52;2.17;;;1.25;;
19036;SDS011;9651;49.138;8.900;2023-09-19T20:42:54;1.23;;;1.10;;
19036;SDS011;9651;49.138;8.900;2023-09-19T20:46:59;2.00;;;1.00;;
19036;SDS011;9651;49.138;8.900;2023-09-19T20:51:05;1.15;;;1.02;;
19036;SDS011;9651;49.138;8.900;2023-09-19T20:55:08;2.67;;;1.27;;
19036;SDS011;9651;49.138;8.900;2023-09-19T20:59:10;3.90;;;1.33;;
19036;SDS011;9651;49.138;8.900;2023-09-19T21:03:13;1.77;;;1.20;;
19036;SDS011;9651;49.138;8.900;2023-09-19T21:07:16;1.40;;;1.20;;
19036;SDS011;9651;49.138;8.900;2023-09-19T21:11:18;6.15;;;1.80;;
19036;SDS011;9651;49.138;8.900;2023-09-19T21:15:21;2.45;;;1.25;;
19036;SDS011;9651;49.138;8.900;2023-09-19T21:19:25;2.97;;;1.20;;
19036;SDS011;9651;49.138;8.900;2023-09-19T21:23:27;1.67;;;1.50;;
19036;SDS011;9651;49.138;8.900;2023-09-19T21:27:29;4.50;;;1.30;;
19036;SDS011;9651;49.138;8.900;2023-09-19T21:31:32;5.15;;;1.45;;
19036;SDS011;9651;49.138;8.900;2023-09-19T21:35:37;1.48;;;1.20;;
19036;SDS011;9651;49.138;8.900;2023-09-19T21:39:45;2.55;;;1.02;;
19036;SDS011;9651;49.138;8.900;2023-09-19T21:43:47;4.32;;;1.30;;
19036;SDS011;9651;49.138;8.900;2023-09-19T21:47:50;1.50;;;0.90;;
19036;SDS011;9651;49.138;8.900;2023-09-19T21:51:53;2.35;;;1.13;;
19036;SDS011;9651;49.138;8.900;2023-09-19T21:55:57;1.65;;;1.02;;
19036;SDS011;9651;49.138;8.900;2023-09-19T22:00:01;2.72;;;1.20;;
19036;SDS011;9651;49.138;8.900;2023-09-19T22:04:11;2.00;;;1.02;;
19036;SDS011;9651;49.138;8.900;2023-09-19T22:08:15;2.72;;;1.20;;
19036;SDS011;9651;49.138;8.900;2023-09-19T22:12:16;4.10;;;1.38;;
19036;SDS011;9651;49.138;8.900;2023-09-19T22:16:19;1.23;;;1.10;;
19036;SDS011;9651;49.138;8.900;2023-09-19T22:20:21;2.55;;;1.02;;
19036;SDS011;9651;49.138;8.900;2023-09-19T22:24:28;1.33;;;1.13;;
19036;SDS011;9651;49.138;8.900;2023-09-19T22:28:31;1.70;;;1.08;;
19036;SDS011;9651;49.138;8.900;2023-09-19T22:32:35;1.88;;;1.08;;
19036;SDS011;9651;49.138;8.900;2023-09-19T22:36:38;2.88;;;1.15;;
19036;SDS011;9651;49.138;8.900;2023-09-19T22:40:44;1.00;;;0.90;;
19036;SDS011;9651;49.138;8.900;2023-09-19T22:44:51;1.55;;;1.30;;
19036;SDS011;9651;49.138;8.900;2023-09-19T22:48:55;1.40;;;1.10;;
19036;SDS011;9651;49.138;8.900;2023-09-19T22:52:57;1.08;;;0.80;;
19036;SDS011;9651;49.138;8.900;2023-09-19T22:57:06;1.20;;;1.10;;
19036;SDS011;9651;49.138;8.900;2023-09-19T23:01:09;2.05;;;0.88;;
19036;SDS011;9651;49.138;8.900;2023-09-19T23:05:16;1.95;;;1.10;;
19036;SDS011;9651;49.138;8.900;2023-09-19T23:09:19;1.48;;;0.90;;
19036;SDS011;9651;49.138;8.900;2023-09-19T23:13:23;1.65;;;0.95;;
19036;SDS011;9651;49.138;8.900;2023-09-19T23:17:27;4.20;;;1.20;;
19036;SDS011;9651;49.138;8.900;2023-09-19T23:21:31;2.03;;;0.90;;
19036;SDS011;9651;49.138;8.900;2023-09-19T23:25:33;5.00;;;1.13;;
19036;SDS011;9651;49.138;8.900;2023-09-19T23:29:46;4.55;;;1.00;;
19036;SDS011;9651;49.138;8.900;2023-09-19T23:33:49;1.65;;;0.95;;
19036;SDS011;9651;49.138;8.900;2023-09-19T23:37:51;3.30;;;1.08;;
19036;SDS011;9651;49.138;8.900;2023-09-19T23:41:53;2.05;;;1.33;;
19036;SDS011;9651;49.138;8.900;2023-09-19T23:45:58;0.80;;;0.80;;
19036;SDS011;9651;49.138;8.900;2023-09-19T23:50:05;3.15;;;1.13;;
19036;SDS011;9651;49.138;8.900;2023-09-19T23:54:10;1.55;;;1.20;;
19036;SDS011;9651;49.138;8.900;2023-09-19T23:58:17;2.95;;;1.23;;
